Eastern Wv Regional Shepherd Field
KMRB : now visible

Airfield :











YOU CAN JOIN US ON...

 
LOGIN :

Register | Disclaimer

   EN    FR    IT 

 









Legend :    VFR   Marginal VFR   IFR   Intensive IFR   Very Intensive IFR
Visi :
Ceiling :
>= 8 km
>= 3000ft
5 to 8 km
1000 to 3000 ft
1500m to 5 km
500 to 1000 ft
800 to 1500m
200 to 500 ft
< 800m
< 200 ft
Symbols :   Thunderstorms  Fog  Heavy snow  Heavy precipitations  Wind > 20 kt






- Airport Elevation : 565 ft


KMRB - Eastern Wv Regional Shepherd Field

CURRENT METAR :
  • 291253Z 00000KT 10SM CLR 19/15 A3024 RMK AO2 SLP237 T01890150

EXPIRED METARs :
  • 291153Z 00000KT 10SM CLR 17/14 A3023 RMK AO2 SLP236 T01720144 10172 20122 51005
  • 291053Z 00000KT 10SM CLR 14/14 A3023 RMK AO2 SLP234 T01440139

TAF KMRB
Valid from the 29 at 12:00 until the 30 at 12:00 UTC


291128Z 2912/3012 00000KT 4SM BR FEW250
FM291300 20004KT P6SM SKC
FM291700 21008G16KT P6SM SCT070
FM292300 25004KT P6SM SCT070
FM300000 00000KT P6SM FEW070
KZDC FIR / North America



MET'MAP, your aeronautical weather chart ! - Copyright ORBIFLY December 2007 - Disclaimer

ORBIFLY MET'MAP TEAM :

Programming & Development : Alexandra Zaïnal
Original concept : Baudouin d'Aumeries
Technical & hardware support : Manuel Goepfert
Assistance : Marc-Olivier Méhu




SOURCES & CREDITS :

   NOAA       Earth
Advisory